createdAt,value
2022-12-13T00:01:17.896Z,100316.44
2022-12-13T00:03:44.717Z,100212.44
2022-12-13T00:06:12.485Z,100245.06
2022-12-13T00:08:39.823Z,100222.63
2022-12-13T00:11:08.784Z,100299.63
2022-12-13T00:13:35.599Z,100295.25
2022-12-13T00:16:05.275Z,100295.28
2022-12-13T00:18:33.380Z,100290.13
2022-12-13T00:21:00.088Z,100181.88
2022-12-13T00:23:28.655Z,100273.25
2022-12-13T00:25:55.263Z,100270.66
2022-12-13T00:28:21.924Z,100262.28
2022-12-13T00:30:48.676Z,100131.72
2022-12-13T00:33:15.369Z,100175.03
2022-12-13T00:35:42.558Z,100241.97
2022-12-13T00:38:10.160Z,100143.97
2022-12-13T00:40:36.874Z,100092.78
2022-12-13T00:43:03.654Z,100086.91
2022-12-13T00:45:30.237Z,100189.31
2022-12-13T00:47:56.927Z,100208.22
2022-12-13T00:50:23.551Z,100124.53
2022-12-13T00:52:50.532Z,100072.69
2022-12-13T00:55:17.268Z,100235.06
2022-12-13T00:57:44.017Z,100153.56
2022-12-13T01:00:11.279Z,100006.00
2022-12-13T01:02:38.049Z,100092.94
2022-12-13T01:05:05.021Z,100223.28
2022-12-13T01:07:31.750Z,100133.44
2022-12-13T01:09:58.697Z,100210.84
2022-12-13T01:12:25.453Z,100033.47
2022-12-13T01:14:56.077Z,100113.50
2022-12-13T01:17:22.953Z,100071.66
2022-12-13T01:19:49.530Z,100007.06
2022-12-13T01:22:16.177Z,100208.53
2022-12-13T01:24:42.779Z,100213.84
2022-12-13T01:27:09.488Z,100134.69
2022-12-13T01:29:36.593Z,100198.88
2022-12-13T01:32:03.824Z,100194.78
2022-12-13T01:34:30.430Z,100197.69
2022-12-13T01:36:58.248Z,100069.16
2022-12-13T01:39:27.358Z,100196.16
2022-12-13T01:42:00.019Z,100200.22
2022-12-13T01:44:59.339Z,100201.75
2022-12-13T01:47:35.858Z,100111.56
2022-12-13T01:50:08.923Z,100014.97
2022-12-13T01:52:36.171Z,100189.34
2022-12-13T01:55:06.193Z,100171.44
2022-12-13T01:57:39.599Z,100038.75
2022-12-13T02:00:10.958Z,100047.75
2022-12-13T02:02:38.595Z,100176.69
2022-12-13T02:05:34.446Z,100169.25
2022-12-13T02:08:03.233Z,100021.75
2022-12-13T02:10:31.573Z,100172.88
2022-12-13T02:12:58.958Z,100164.44
2022-12-13T02:15:33.658Z,100167.03
2022-12-13T02:18:14.646Z,99970.00
2022-12-13T02:21:02.704Z,100162.78
2022-12-13T02:23:54.225Z,100157.00
2022-12-13T02:26:39.756Z,100156.53
2022-12-13T02:29:30.398Z,100156.00
2022-12-13T02:32:15.662Z,100062.59
2022-12-13T02:35:02.451Z,100152.59
2022-12-13T02:37:48.845Z,100146.84
2022-12-13T02:40:32.583Z,100009.38
2022-12-13T02:43:21.535Z,100131.94
2022-12-13T02:45:55.112Z,99850.81
2022-12-13T02:48:26.737Z,100126.28
2022-12-13T02:50:53.929Z,100116.94
2022-12-13T02:53:22.925Z,100084.22
2022-12-13T02:55:50.083Z,100015.38
2022-12-13T02:58:25.342Z,100112.25
2022-12-13T03:00:57.121Z,100122.03
2022-12-13T03:03:35.736Z,100107.91
2022-12-13T03:06:33.221Z,100107.03
2022-12-13T03:09:32.982Z,100099.22
2022-12-13T03:12:24.348Z,100050.06
2022-12-13T03:14:56.839Z,100095.88
2022-12-13T03:17:26.265Z,99960.22
2022-12-13T03:19:53.747Z,99731.44
2022-12-13T03:22:20.822Z,99920.72
2022-12-13T03:24:47.430Z,99781.06
2022-12-13T03:27:14.138Z,100081.34
2022-12-13T03:29:40.856Z,100038.78
2022-12-13T03:32:07.449Z,99911.72
2022-12-13T03:34:44.803Z,100037.59
2022-12-13T03:37:13.004Z,99929.56
2022-12-13T03:39:39.648Z,99934.56
2022-12-13T03:42:06.488Z,100044.53
2022-12-13T03:44:33.142Z,100033.53
2022-12-13T03:47:00.690Z,99749.06
2022-12-13T03:49:27.556Z,99820.31
2022-12-13T03:52:02.468Z,99956.47
2022-12-13T03:54:29.052Z,99886.59
2022-12-13T03:56:55.705Z,99967.56
2022-12-13T03:59:22.333Z,99961.03
2022-12-13T04:01:49.033Z,100016.06
2022-12-13T04:04:15.642Z,99911.75
2022-12-13T04:06:42.364Z,99844.88
2022-12-13T04:09:09.525Z,100021.28
2022-12-13T04:11:54.517Z,99905.34
2022-12-13T04:14:22.523Z,100015.28
2022-12-13T04:16:53.720Z,100008.50
2022-12-13T04:19:23.629Z,99998.53
2022-12-13T04:21:52.275Z,99912.88
2022-12-13T04:24:18.895Z,100033.59
2022-12-13T04:26:45.886Z,99922.47
2022-12-13T04:29:13.130Z,100027.16
2022-12-13T04:31:40.613Z,99962.53
2022-12-13T04:34:08.876Z,99950.88
2022-12-13T04:36:35.605Z,99984.53
2022-12-13T04:39:22.369Z,99974.56
2022-12-13T04:41:51.883Z,99844.88
2022-12-13T04:44:28.196Z,99960.19
2022-12-13T04:47:01.069Z,99967.47
2022-12-13T04:49:30.752Z,99835.50
2022-12-13T04:52:01.196Z,99854.13
2022-12-13T04:54:36.337Z,99971.22
2022-12-13T04:57:07.965Z,99943.34
2022-12-13T04:59:35.528Z,99968.63
2022-12-13T05:02:02.520Z,99794.31
2022-12-13T05:04:32.891Z,99988.53
2022-12-13T05:07:00.973Z,99895.94
2022-12-13T05:09:27.578Z,99736.56
2022-12-13T05:12:01.655Z,99805.94
2022-12-13T05:14:31.401Z,99774.47
2022-12-13T05:16:58.873Z,99907.38
2022-12-13T05:19:31.200Z,99913.63
2022-12-13T05:22:01.592Z,99669.59
2022-12-13T05:24:30.401Z,99792.59
2022-12-13T05:26:57.953Z,99914.97
2022-12-13T05:29:24.681Z,99607.25
2022-12-13T05:31:51.413Z,99903.22
2022-12-13T05:34:18.918Z,99756.94
2022-12-13T05:36:45.605Z,99901.59
2022-12-13T05:39:28.035Z,99888.56
2022-12-13T05:42:02.261Z,99857.03
2022-12-13T05:44:31.385Z,99888.25
2022-12-13T05:46:58.422Z,99764.56
2022-12-13T05:49:30.738Z,99389.66
2022-12-13T05:51:57.413Z,99880.75
2022-12-13T05:54:25.698Z,99889.06
2022-12-13T05:56:52.422Z,99774.22
2022-12-13T05:59:19.195Z,99816.03
2022-12-13T06:01:46.010Z,99892.84
2022-12-13T06:04:13.058Z,99811.66
2022-12-13T06:06:51.142Z,99871.25
2022-12-13T06:09:18.932Z,99650.88
2022-12-13T06:11:46.785Z,99658.41
2022-12-13T06:14:22.248Z,99786.13
2022-12-13T06:16:51.767Z,99812.00
2022-12-13T06:19:19.378Z,99828.94
2022-12-13T06:21:46.629Z,99841.72
2022-12-13T06:24:18.665Z,99726.44
2022-12-13T06:26:45.887Z,99677.81
2022-12-13T06:29:23.149Z,99866.69
2022-12-13T06:32:02.481Z,99633.63
2022-12-13T06:34:35.764Z,99854.38
2022-12-13T06:37:07.022Z,99614.06
2022-12-13T06:39:35.139Z,99784.91
2022-12-13T06:42:06.504Z,99832.44
2022-12-13T06:44:34.507Z,99775.88
2022-12-13T06:47:12.156Z,99653.59
2022-12-13T06:49:43.065Z,99727.38
2022-12-13T06:52:14.138Z,99802.84
2022-12-13T06:54:42.474Z,99605.50
2022-12-13T06:57:10.002Z,99792.88
2022-12-13T06:59:37.060Z,99841.00
2022-12-13T07:02:05.954Z,99646.56
2022-12-13T07:04:33.076Z,99668.75
2022-12-13T07:07:01.680Z,99650.78
2022-12-13T07:09:33.282Z,99636.78
2022-12-13T07:12:05.292Z,99334.38
2022-12-13T07:14:32.316Z,99427.06
2022-12-13T07:17:08.023Z,99831.88
2022-12-13T07:19:35.734Z,99769.84
2022-12-13T07:22:06.137Z,99865.63
2022-12-13T07:24:34.969Z,99504.66
2022-12-13T07:27:02.788Z,99753.66
2022-12-13T07:29:29.697Z,99806.50
2022-12-13T07:32:01.793Z,99803.72
2022-12-13T07:34:29.975Z,99716.53
2022-12-13T07:36:56.607Z,99682.38
2022-12-13T07:39:26.153Z,99802.47
2022-12-13T07:41:56.888Z,99809.75
2022-12-13T07:44:24.732Z,99815.28
2022-12-13T07:46:51.919Z,99749.34
2022-12-13T07:49:18.767Z,99659.94
2022-12-13T07:51:45.492Z,99721.13
2022-12-13T07:54:12.310Z,99809.91
2022-12-13T07:56:39.186Z,99803.16
2022-12-13T07:59:06.149Z,99808.59
2022-12-13T08:01:34.693Z,99704.47
2022-12-13T08:04:03.021Z,99771.09
2022-12-13T08:06:34.713Z,99635.25
2022-12-13T08:09:01.526Z,99612.19
2022-12-13T08:11:28.289Z,99775.34
2022-12-13T08:13:55.130Z,99654.56
2022-12-13T08:16:28.413Z,99770.19
2022-12-13T08:19:02.306Z,99783.53
2022-12-13T08:24:20.525Z,99778.03
2022-12-13T08:26:47.678Z,99782.06
2022-12-13T08:29:23.177Z,99637.38
2022-12-13T08:32:01.874Z,99774.44
2022-12-13T08:34:28.737Z,99687.56
2022-12-13T08:37:01.700Z,99622.97
2022-12-13T08:39:34.576Z,99780.56
2022-12-13T08:42:17.101Z,99553.38
2022-12-13T08:44:50.361Z,99667.72
2022-12-13T08:47:23.985Z,99785.97
2022-12-13T08:50:04.164Z,99771.53
2022-12-13T08:52:38.975Z,99735.69
2022-12-13T08:55:12.511Z,99618.16
2022-12-13T08:57:40.903Z,99618.41
2022-12-13T09:00:11.549Z,99704.97
2022-12-13T09:02:38.944Z,99489.84
2022-12-13T09:05:07.855Z,99761.47
2022-12-13T09:07:40.946Z,99488.94
2022-12-13T09:10:26.516Z,99495.44
2022-12-13T09:13:01.347Z,99523.81
2022-12-13T09:15:34.445Z,99613.31
2022-12-13T09:18:04.980Z,99672.00
2022-12-13T09:20:41.160Z,99516.63
2022-12-13T09:23:14.055Z,99551.34
2022-12-13T09:25:56.052Z,99609.41
2022-12-13T09:28:32.373Z,99565.72
2022-12-13T09:30:59.997Z,99614.00
2022-12-13T09:33:30.620Z,99487.59
2022-12-13T09:35:58.288Z,99699.06
2022-12-13T09:38:28.060Z,99658.00
2022-12-13T09:40:58.533Z,99557.97
2022-12-13T09:43:33.091Z,99580.53
2022-12-13T09:46:22.135Z,99550.50
2022-12-13T09:48:53.052Z,99383.97
2022-12-13T09:51:43.664Z,99682.63
2022-12-13T09:54:18.495Z,99718.75
2022-12-13T09:56:50.739Z,99595.19
2022-12-13T09:59:25.544Z,99582.63
2022-12-13T10:01:52.645Z,99444.75
2022-12-13T10:04:19.843Z,99664.06
2022-12-13T10:06:46.500Z,99478.56
2022-12-13T10:09:14.307Z,99670.53
2022-12-13T10:11:50.840Z,99489.81
2022-12-13T10:14:36.477Z,99655.66
2022-12-13T10:17:08.355Z,99495.97
2022-12-13T10:19:39.276Z,99587.13
2022-12-13T10:22:11.961Z,99563.03
2022-12-13T10:24:54.316Z,99582.88
2022-12-13T10:27:33.512Z,99633.16
2022-12-13T10:30:10.893Z,99559.59
2022-12-13T10:32:46.896Z,99621.88
2022-12-13T10:35:28.464Z,99612.88
2022-12-13T10:37:57.193Z,99605.75
2022-12-13T10:40:35.960Z,99489.84
2022-12-13T10:43:18.604Z,99602.13
2022-12-13T10:45:59.689Z,99600.03
2022-12-13T10:48:49.297Z,99599.56
2022-12-13T10:51:21.576Z,99598.41
2022-12-13T10:53:55.278Z,99609.22
2022-12-13T10:56:32.652Z,99589.44
2022-12-13T10:59:22.617Z,99583.22
2022-12-13T11:01:49.436Z,99362.25
2022-12-13T11:04:42.126Z,99579.31
2022-12-13T11:07:27.777Z,99402.84
2022-12-13T11:09:54.970Z,99572.50
2022-12-13T11:12:24.886Z,99530.47
2022-12-13T11:14:58.502Z,99566.31
2022-12-13T11:17:29.188Z,99574.28
2022-12-13T11:19:58.036Z,99562.09
2022-12-13T11:22:28.483Z,99439.41
2022-12-13T11:25:17.158Z,99529.53
2022-12-13T11:28:02.040Z,99531.03
2022-12-13T11:30:37.540Z,99532.09
2022-12-13T11:33:04.152Z,99429.91
2022-12-13T11:35:51.568Z,99441.47
2022-12-13T11:38:48.900Z,99516.28
2022-12-13T11:41:31.361Z,99478.06
2022-12-13T11:44:04.193Z,99530.72
2022-12-13T11:46:48.122Z,99475.56
2022-12-13T11:49:25.675Z,99508.25
2022-12-13T11:51:59.795Z,99436.66
2022-12-13T11:54:38.008Z,99498.16
2022-12-13T11:57:16.411Z,99449.31
2022-12-13T11:59:51.027Z,99431.88
2022-12-13T12:02:34.233Z,99454.63
2022-12-13T12:05:22.512Z,99439.00
2022-12-13T12:08:30.978Z,99427.69
2022-12-13T12:10:49.723Z,99434.03
2022-12-13T12:13:23.642Z,99433.81
2022-12-13T12:16:10.620Z,99279.09
2022-12-13T12:18:37.605Z,99425.84
2022-12-13T12:22:12.327Z,99475.63
2022-12-13T12:24:35.788Z,99485.72
2022-12-13T12:27:23.140Z,99472.81
2022-12-13T12:30:11.437Z,99473.56
2022-12-13T12:32:53.546Z,99472.84
2022-12-13T12:35:51.933Z,99462.03
2022-12-13T12:38:33.536Z,99455.91
2022-12-13T12:41:16.721Z,99446.63
2022-12-13T12:43:46.545Z,99524.16
2022-12-13T12:47:09.201Z,99443.72
2022-12-13T12:49:42.479Z,99430.59
2022-12-13T12:52:29.760Z,99388.03
2022-12-13T12:55:41.328Z,99429.66
2022-12-13T12:58:25.116Z,99421.38
2022-12-13T13:01:07.699Z,99427.13
2022-12-13T13:03:37.078Z,99307.50
2022-12-13T13:06:15.923Z,99340.28
2022-12-13T13:09:05.657Z,99350.41
2022-12-13T13:11:43.376Z,99272.75
2022-12-13T13:14:39.689Z,99394.97
2022-12-13T13:17:24.273Z,99387.00
2022-12-13T13:20:04.103Z,99165.53
2022-12-13T13:22:43.538Z,99297.03
2022-12-13T13:25:23.006Z,99379.47
2022-12-13T13:27:53.517Z,99244.19
2022-12-13T13:30:24.062Z,99366.72
2022-12-13T13:32:53.439Z,99333.53
2022-12-13T13:35:28.246Z,99372.34
2022-12-13T13:38:06.154Z,99257.81
2022-12-13T13:40:36.033Z,99043.06
2022-12-13T13:43:05.421Z,99374.56
2022-12-13T13:46:10.925Z,99357.22
2022-12-13T13:49:01.738Z,99307.97
2022-12-13T13:52:16.633Z,99357.47
2022-12-13T13:55:06.238Z,99357.09
2022-12-13T13:58:09.812Z,99354.03
2022-12-13T14:01:00.258Z,99225.66
2022-12-13T14:03:48.760Z,99357.66
2022-12-13T14:06:44.921Z,99352.34
2022-12-13T14:09:38.741Z,99335.44
2022-12-13T14:12:27.312Z,99351.25
2022-12-13T14:15:40.403Z,99248.75
2022-12-13T14:18:09.797Z,99332.84
2022-12-13T14:20:45.586Z,99336.78
2022-12-13T14:23:36.644Z,99328.97
2022-12-13T14:26:28.499Z,99330.44
2022-12-13T14:28:58.659Z,99134.81
2022-12-13T14:31:35.613Z,99097.72
2022-12-13T14:34:04.400Z,99316.16
2022-12-13T14:36:36.209Z,99041.41
2022-12-13T14:39:06.492Z,99315.72
2022-12-13T14:41:57.365Z,99286.38
2022-12-13T14:44:29.198Z,99302.44
2022-12-13T14:47:00.105Z,99301.75
2022-12-13T14:49:31.065Z,99077.94
2022-12-13T14:52:27.033Z,99290.34
2022-12-13T14:55:00.700Z,99294.22
2022-12-13T14:57:31.938Z,99262.13
2022-12-13T15:00:00.474Z,99261.28
2022-12-13T15:02:31.819Z,99284.28
2022-12-13T15:05:01.361Z,99275.91
2022-12-13T15:07:37.185Z,99265.97
2022-12-13T15:10:22.691Z,99231.66
2022-12-13T15:12:52.227Z,99008.81
2022-12-13T15:15:34.324Z,99256.97
2022-12-13T15:18:22.815Z,99250.56
2022-12-13T15:20:54.436Z,99255.38
2022-12-13T15:23:34.225Z,99072.44
2022-12-13T15:26:08.612Z,99147.97
2022-12-13T15:28:39.336Z,99057.47
2022-12-13T15:31:06.999Z,99214.59
2022-12-13T15:33:38.084Z,99154.50
2022-12-13T15:36:24.415Z,99116.25
2022-12-13T15:39:02.116Z,99024.69
2022-12-13T15:41:41.990Z,99222.56
2022-12-13T15:44:19.625Z,99217.66
2022-12-13T15:47:09.599Z,99014.19
2022-12-13T15:49:51.925Z,99215.78
2022-12-13T15:52:19.271Z,99192.13
2022-12-13T15:55:00.960Z,99146.50
2022-12-13T15:57:50.302Z,99081.22
2022-12-13T16:00:17.018Z,99204.75
2022-12-13T16:02:53.287Z,99190.88
2022-12-13T16:05:35.311Z,99190.38
2022-12-13T16:08:14.259Z,99191.19
2022-12-13T16:10:47.872Z,99174.91
2022-12-13T16:13:27.493Z,99174.66
2022-12-13T16:16:08.992Z,99168.38
2022-12-13T16:18:52.087Z,99182.63
2022-12-13T16:21:19.259Z,98917.28
2022-12-13T16:23:48.181Z,99171.41
2022-12-13T16:26:22.387Z,98873.00
2022-12-13T16:28:49.085Z,99112.25
2022-12-13T16:31:24.278Z,99157.59
2022-12-13T16:33:51.299Z,99149.28
2022-12-13T16:36:18.029Z,99089.50
2022-12-13T16:38:44.705Z,99135.38
2022-12-13T16:41:11.931Z,98940.72
2022-12-13T16:43:46.469Z,99141.44
2022-12-13T16:47:13.710Z,99087.28
2022-12-13T16:49:08.857Z,99045.34
2022-12-13T16:51:35.505Z,99130.72
2022-12-13T16:54:02.082Z,98876.63
2022-12-13T16:56:28.765Z,99034.72
2022-12-13T16:58:55.353Z,98950.09
2022-12-13T17:01:22.137Z,99122.94
2022-12-13T17:03:48.761Z,99047.81
2022-12-13T17:06:21.477Z,99126.00
2022-12-13T17:08:48.218Z,99121.72
2022-12-13T17:11:17.985Z,99060.22
2022-12-13T17:13:46.943Z,98958.16
2022-12-13T17:16:14.095Z,99054.34
2022-12-13T17:18:41.072Z,98988.00
2022-12-13T17:21:09.674Z,99102.44
2022-12-13T17:23:38.735Z,99106.28
2022-12-13T17:26:07.398Z,99096.94
2022-12-13T17:28:34.818Z,99049.97
2022-12-13T17:31:09.485Z,99145.06
2022-12-13T17:33:36.408Z,99095.97
2022-12-13T17:36:07.854Z,98824.50
2022-12-13T17:38:35.041Z,98877.94
2022-12-13T17:41:01.757Z,99045.41
2022-12-13T17:43:34.282Z,99047.56
2022-12-13T17:46:02.944Z,98951.41
2022-12-13T17:48:37.263Z,99029.50
2022-12-13T17:51:07.418Z,99074.91
2022-12-13T17:53:34.145Z,98954.47
2022-12-13T17:56:03.325Z,99082.72
2022-12-13T17:58:32.202Z,99077.03
2022-12-13T18:00:59.546Z,99034.53
2022-12-13T18:03:26.787Z,98977.28
2022-12-13T18:05:58.742Z,99008.97
2022-12-13T18:08:26.513Z,98961.47
2022-12-13T18:11:15.652Z,99004.03
2022-12-13T18:13:42.290Z,99060.28
2022-12-13T18:16:13.638Z,98928.50
2022-12-13T18:18:40.504Z,98957.50
2022-12-13T18:21:12.742Z,98863.75
2022-12-13T18:23:39.550Z,99049.13
2022-12-13T18:26:09.609Z,99050.22
2022-12-13T18:28:36.592Z,98936.25
2022-12-13T18:31:06.112Z,99041.69
2022-12-13T18:33:33.338Z,98642.19
2022-12-13T18:36:01.584Z,98954.16
2022-12-13T18:38:34.517Z,99043.81
2022-12-13T18:41:07.424Z,99038.53
2022-12-13T18:43:35.291Z,99027.78
2022-12-13T18:46:03.280Z,98986.00
2022-12-13T18:48:30.651Z,98948.09
2022-12-13T18:51:02.469Z,99026.53
2022-12-13T18:53:31.733Z,99026.06
2022-12-13T18:56:04.729Z,98914.72
2022-12-13T18:58:32.306Z,99027.91
2022-12-13T19:01:00.446Z,98961.06
2022-12-13T19:03:27.602Z,98932.91
2022-12-13T19:05:58.354Z,98994.16
2022-12-13T19:08:26.694Z,98876.91
2022-12-13T19:10:55.016Z,99009.09
2022-12-13T19:13:23.155Z,98673.69
2022-12-13T19:15:51.174Z,98966.84
2022-12-13T19:18:17.967Z,98966.84
2022-12-13T19:20:49.357Z,98954.13
2022-12-13T19:23:17.986Z,98910.81
2022-12-13T19:25:45.483Z,98790.41
2022-12-13T19:28:17.470Z,98999.44
2022-12-13T19:30:47.816Z,98769.19
2022-12-13T19:33:15.153Z,98791.56
2022-12-13T19:35:43.270Z,98996.47
2022-12-13T19:38:10.353Z,98913.91
2022-12-13T19:40:42.400Z,98988.97
2022-12-13T19:43:11.248Z,98810.91
2022-12-13T19:45:38.182Z,98922.03
2022-12-13T19:48:05.078Z,98825.13
2022-12-13T19:50:31.816Z,98979.66
2022-12-13T19:52:58.585Z,98771.72
2022-12-13T19:55:25.269Z,98882.81
2022-12-13T19:57:52.091Z,98973.34
2022-12-13T20:00:18.927Z,98807.78
2022-12-13T20:02:45.617Z,98800.50
2022-12-13T20:05:12.613Z,98886.31
2022-12-13T20:07:39.399Z,98825.16
2022-12-13T20:10:06.706Z,98955.81
2022-12-13T20:12:38.774Z,98955.56
2022-12-13T20:15:08.397Z,98959.91
2022-12-13T20:17:36.022Z,98952.88
2022-12-13T20:20:04.138Z,98958.72
2022-12-13T20:22:32.079Z,98948.72
2022-12-13T20:25:00.469Z,98936.19
2022-12-13T20:27:27.305Z,98858.06
2022-12-13T20:29:56.997Z,98925.13
2022-12-13T20:32:24.369Z,98923.75
2022-12-13T20:34:54.717Z,98782.44
2022-12-13T20:37:24.040Z,98849.00
2022-12-13T20:40:09.741Z,98871.66
2022-12-13T20:42:39.649Z,98925.00
2022-12-13T20:45:07.146Z,98734.72
2022-12-13T20:47:37.854Z,98894.97
2022-12-13T20:50:05.909Z,98913.16
2022-12-13T20:52:32.623Z,98922.75
2022-12-13T20:54:59.666Z,98837.28
2022-12-13T20:57:26.336Z,98912.84
2022-12-13T20:59:53.008Z,98800.31
2022-12-13T21:02:20.437Z,98867.34
2022-12-13T21:04:47.140Z,98834.72
2022-12-13T21:07:13.782Z,98915.72
2022-12-13T21:09:40.415Z,98867.97
2022-12-13T21:12:09.120Z,98737.97
2022-12-13T21:14:36.710Z,98874.56
2022-12-13T21:17:09.551Z,98733.56
2022-12-13T21:19:40.175Z,98812.97
2022-12-13T21:22:07.474Z,98761.75
2022-12-13T21:24:34.083Z,98749.09
2022-12-13T21:27:01.021Z,98772.25
2022-12-13T21:29:27.616Z,98829.16
2022-12-13T21:31:55.093Z,98821.41
2022-12-13T21:34:22.468Z,98821.50
2022-12-13T21:36:52.255Z,98905.38
2022-12-13T21:39:24.791Z,98221.91
2022-12-13T21:41:52.082Z,98723.28
2022-12-13T21:44:19.304Z,98857.13
2022-12-13T21:49:33.088Z,98883.38
2022-12-13T21:51:59.893Z,98884.63
2022-12-13T21:54:26.590Z,98674.72
2022-12-13T21:57:11.998Z,98822.16
2022-12-13T21:59:38.723Z,98892.50
2022-12-13T22:02:20.152Z,98886.50
2022-12-13T22:04:55.185Z,98763.91
2022-12-13T22:07:27.362Z,98814.84
2022-12-13T22:09:55.129Z,98885.53
2022-12-13T22:12:33.004Z,98881.53
2022-12-13T22:15:00.337Z,98874.56
2022-12-13T22:17:34.773Z,98829.41
2022-12-13T22:20:06.803Z,98753.28
2022-12-13T22:22:33.954Z,98885.59
2022-12-13T22:25:00.642Z,98840.00
2022-12-13T22:27:27.392Z,98837.59
2022-12-13T22:29:58.924Z,98406.59
2022-12-13T22:32:27.538Z,98874.00
2022-12-13T22:34:54.482Z,98923.69
2022-12-13T22:37:21.549Z,98869.22
2022-12-13T22:39:48.273Z,98671.28
2022-12-13T22:42:15.826Z,98871.50
2022-12-13T22:44:42.605Z,98869.03
2022-12-13T22:47:09.232Z,98799.50
2022-12-13T22:49:36.938Z,98875.84
2022-12-13T22:52:03.720Z,98812.16
2022-12-13T22:54:30.393Z,98839.44
2022-12-13T22:56:57.061Z,98832.69
2022-12-13T22:59:26.355Z,98675.88
2022-12-13T23:02:01.382Z,98692.81
2022-12-13T23:04:31.834Z,98628.66
2022-12-13T23:06:58.690Z,98630.78
2022-12-13T23:09:28.593Z,98714.19
2022-12-13T23:12:30.938Z,97338.34
2022-12-13T23:15:00.706Z,96995.63
2022-12-13T23:17:32.140Z,97093.84
2022-12-13T23:20:06.948Z,98520.06
2022-12-13T23:22:37.107Z,97031.88
2022-12-13T23:25:04.089Z,98834.72
2022-12-13T23:27:30.699Z,98739.81
2022-12-13T23:29:57.365Z,98667.16
2022-12-13T23:32:24.032Z,98648.81
2022-12-13T23:34:50.665Z,98651.50
2022-12-13T23:37:17.445Z,98685.44
2022-12-13T23:39:44.231Z,98828.19
2022-12-13T23:42:10.952Z,98820.47
2022-12-13T23:44:37.632Z,98826.25
2022-12-13T23:47:04.515Z,98720.63
2022-12-13T23:49:31.326Z,98294.63
2022-12-13T23:51:57.981Z,98818.16
2022-12-13T23:54:24.574Z,98736.28
2022-12-13T23:56:51.214Z,98751.84
2022-12-13T23:59:18.842Z,98706.06
